Time;durP1;ratioP1;P1;durP2;ratioP2;P2;SDS_P1;SDS_P2;PMS_P1;PMS_P2;Temp;Humidity;BMP_temperature;BMP_pressure;BME280_temperature;BME280_humidity;BME280_pressure;Samples;Min_cycle;Max_cycle;Signal;HPM_P1;HPM_P2
2021/08/10 00:01:01;;;;;;;37.95;4.53;;;40.20;39.70;;;;;;5086370;28;20207;-57
2021/08/10 00:03:29;;;;;;;18.20;3.90;;;40.30;39.20;;;;;;5081301;28;20167;-61
2021/08/10 00:05:56;;;;;;;29.60;4.47;;;40.10;38.90;;;;;;5082960;28;21687;-58
2021/08/10 00:08:23;;;;;;;32.15;3.80;;;40.10;39.60;;;;;;5079429;28;20099;-55
2021/08/10 00:10:50;;;;;;;36.45;4.93;;;40.10;39.70;;;;;;5078718;28;20088;-61
2021/08/10 00:13:19;;;;;;;27.02;3.60;;;40.10;39.50;;;;;;5080768;28;20626;-59
2021/08/10 00:15:46;;;;;;;30.92;3.95;;;39.90;40.80;;;;;;5083328;28;20112;-57
2021/08/10 00:18:13;;;;;;;31.83;4.18;;;39.90;39.40;;;;;;5081629;28;20069;-57
2021/08/10 00:20:40;;;;;;;33.58;3.80;;;39.70;40.20;;;;;;5080747;28;20076;-57
2021/08/10 00:23:07;;;;;;;29.95;4.47;;;39.60;40.30;;;;;;5082167;28;20077;-57
2021/08/10 00:25:33;;;;;;;26.45;4.07;;;39.50;40.40;;;;;;5083164;28;20445;-63
2021/08/10 00:28:00;;;;;;;27.27;4.03;;;39.40;41.20;;;;;;5083123;28;20072;-57
2021/08/10 00:30:28;;;;;;;19.95;3.25;;;39.20;41.30;;;;;;5081897;28;20495;-55
2021/08/10 00:32:54;;;;;;;21.45;3.33;;;39.30;40.90;;;;;;5083067;28;20573;-56
2021/08/10 00:35:21;;;;;;;18.65;3.72;;;39.20;40.70;;;;;;5081395;28;20081;-56
2021/08/10 00:37:48;;;;;;;17.30;3.33;;;39.10;41.20;;;;;;5084732;28;20073;-57
2021/08/10 00:40:15;;;;;;;18.02;3.60;;;39.10;41.30;;;;;;5081759;28;20083;-57
2021/08/10 00:42:42;;;;;;;19.02;3.60;;;39.10;42.00;;;;;;5079115;28;20148;-59
2021/08/10 00:45:09;;;;;;;13.63;3.28;;;39.10;41.90;;;;;;5082389;28;20126;-59
2021/08/10 00:47:35;;;;;;;14.90;3.10;;;39.00;41.70;;;;;;5081000;28;20073;-56
2021/08/10 00:50:02;;;;;;;11.55;2.42;;;38.90;41.90;;;;;;5081678;28;20104;-63
2021/08/10 00:52:29;;;;;;;13.77;3.10;;;38.80;42.50;;;;;;5078863;28;20111;-56
2021/08/10 00:54:56;;;;;;;19.10;2.75;;;38.80;42.20;;;;;;5082108;28;20084;-55
2021/08/10 00:57:23;;;;;;;25.45;3.03;;;38.70;42.60;;;;;;5080750;28;20422;-57
2021/08/10 00:59:49;;;;;;;18.95;2.78;;;38.70;42.50;;;;;;5084386;28;20096;-55
2021/08/10 01:02:16;;;;;;;20.73;2.95;;;38.70;42.60;;;;;;5083361;28;20517;-57
2021/08/10 01:04:42;;;;;;;22.23;2.75;;;38.60;43.10;;;;;;5084284;28;20186;-58
2021/08/10 01:07:27;;;;;;;28.73;3.60;;;38.60;43.20;;;;;;5080291;28;20156;-57
2021/08/10 01:10:02;;;;;;;20.50;3.70;;;38.60;42.90;;;;;;5081374;28;20125;-57
2021/08/10 01:12:58;;;;;;;28.80;6.28;;;38.50;43.10;;;;;;5081794;28;20072;-57
2021/08/10 01:15:30;;;;;;;18.38;6.32;;;38.30;43.60;;;;;;5080969;28;20538;-56
2021/08/10 01:18:13;;;;;;;22.75;8.43;;;38.20;43.50;;;;;;5081316;28;20024;-56
2021/08/10 01:21:16;;;;;;;36.33;6.35;;;38.20;44.00;;;;;;5081247;28;20077;-59
2021/08/10 01:23:46;;;;;;;29.52;4.05;;;38.10;44.20;;;;;;5083763;28;20065;-58
2021/08/10 01:26:51;;;;;;;22.52;3.58;;;38.10;44.30;;;;;;5081644;28;20081;-56
2021/08/10 01:29:29;;;;;;;24.35;4.50;;;37.90;44.50;;;;;;5072708;28;20160;-58
2021/08/10 01:31:59;;;;;;;25.75;4.15;;;37.80;52.60;;;;;;5083293;28;20431;-56
2021/08/10 01:34:42;;;;;;;18.85;5.85;;;37.80;44.60;;;;;;5080532;28;20072;-58
2021/08/10 01:37:17;;;;;;;19.73;5.72;;;37.80;44.20;;;;;;5084615;28;20203;-56
2021/08/10 01:39:47;;;;;;;20.05;5.35;;;37.90;43.90;;;;;;5083447;28;20085;-57
2021/08/10 01:42:16;;;;;;;26.83;7.10;;;38.00;43.80;;;;;;5087212;28;20140;-57
2021/08/10 01:44:45;;;;;;;20.42;4.07;;;38.30;43.20;;;;;;5084871;28;20163;-59
2021/08/10 01:47:12;;;;;;;19.65;5.07;;;38.20;42.50;;;;;;5086868;28;20083;-57
2021/08/10 01:49:41;;;;;;;32.63;7.47;;;38.10;43.00;;;;;;5084116;28;20199;-60
2021/08/10 01:52:16;;;;;;;24.23;7.45;;;37.80;42.80;;;;;;5086660;28;20104;-57
2021/08/10 01:54:44;;;;;;;23.13;8.38;;;37.60;43.00;;;;;;5085106;28;20414;-57
2021/08/10 01:57:11;;;;;;;22.08;8.88;;;37.50;43.10;;;;;;5084186;28;20483;-58
2021/08/10 01:59:39;;;;;;;40.35;12.80;;;37.50;43.10;;;;;;5089955;28;20151;-64
2021/08/10 02:02:07;;;;;;;41.80;12.88;;;37.40;43.10;;;;;;5085602;28;20636;-56
2021/08/10 02:04:34;;;;;;;33.72;11.85;;;37.30;43.40;;;;;;5087757;28;20081;-58
2021/08/10 02:07:02;;;;;;;26.25;9.30;;;37.20;43.60;;;;;;5084110;28;20069;-58
2021/08/10 02:09:30;;;;;;;30.95;9.38;;;37.20;43.80;;;;;;5085053;28;20077;-59
2021/08/10 02:11:57;;;;;;;25.98;8.63;;;37.20;44.10;;;;;;5081519;28;20073;-58
2021/08/10 02:14:26;;;;;;;28.80;9.55;;;37.10;44.20;;;;;;5081648;28;20410;-58
2021/08/10 02:16:59;;;;;;;26.50;9.27;;;37.10;44.50;;;;;;5083173;28;20127;-58
2021/08/10 02:19:26;;;;;;;23.17;7.60;;;37.00;44.60;;;;;;5085896;28;20513;-57
2021/08/10 02:22:01;;;;;;;21.90;5.50;;;37.00;44.90;;;;;;5085116;28;20663;-55
2021/08/10 02:24:32;;;;;;;13.27;5.00;;;37.00;45.00;;;;;;5082566;28;20533;-58
2021/08/10 02:27:02;;;;;;;27.70;5.05;;;36.80;45.20;;;;;;5080803;28;20080;-56
2021/08/10 02:29:44;;;;;;;26.13;5.35;;;36.80;45.00;;;;;;5081515;28;20084;-59
2021/08/10 02:32:13;;;;;;;17.73;4.13;;;36.70;45.20;;;;;;5084552;28;20091;-58
2021/08/10 02:34:43;;;;;;;20.10;4.40;;;36.70;45.40;;;;;;5082138;28;20131;-58
2021/08/10 02:37:15;;;;;;;20.25;3.85;;;36.60;45.40;;;;;;5084495;28;20107;-57
2021/08/10 02:39:45;;;;;;;21.45;4.60;;;36.60;45.30;;;;;;5084232;28;20401;-56
2021/08/10 02:42:14;;;;;;;16.20;4.15;;;36.50;45.00;;;;;;5081073;28;20528;-56
2021/08/10 02:44:42;;;;;;;15.93;4.40;;;36.50;45.10;;;;;;5083775;28;20076;-57
2021/08/10 02:47:10;;;;;;;14.93;3.55;;;36.50;45.10;;;;;;5085892;28;20069;-58
2021/08/10 02:49:36;;;;;;;12.55;4.10;;;36.50;45.00;;;;;;5083551;28;20100;-56
2021/08/10 02:52:03;;;;;;;19.23;3.88;;;36.50;45.00;;;;;;5081790;28;20166;-58
2021/08/10 02:54:30;;;;;;;16.23;3.00;;;36.50;45.00;;;;;;5082428;28;20104;-59
2021/08/10 02:57:02;;;;;;;12.50;3.58;;;36.40;45.20;;;;;;5084234;28;20488;-59
2021/08/10 02:59:56;;;;;;;13.50;3.78;;;36.40;45.20;;;;;;5083883;28;20073;-59
2021/08/10 03:02:27;;;;;;;15.63;4.15;;;36.30;45.30;;;;;;5088157;28;20548;-59
2021/08/10 03:05:09;;;;;;;15.73;4.13;;;36.30;45.50;;;;;;5082247;28;20131;-58
2021/08/10 03:07:40;;;;;;;20.25;3.50;;;36.30;45.20;;;;;;5082151;28;20073;-58
2021/08/10 03:10:08;;;;;;;17.17;2.78;;;36.30;44.80;;;;;;5082501;28;20108;-57
2021/08/10 03:12:44;;;;;;;18.40;3.13;;;36.20;44.30;;;;;;5083876;28;20069;-57
2021/08/10 03:15:13;;;;;;;12.95;2.95;;;36.20;44.60;;;;;;5083485;28;20572;-59
2021/08/10 03:17:41;;;;;;;10.23;3.00;;;36.20;44.30;;;;;;5082880;28;20085;-58
2021/08/10 03:20:10;;;;;;;19.88;3.40;;;36.20;44.40;;;;;;5078937;28;20119;-57
2021/08/10 03:22:38;;;;;;;25.15;3.20;;;36.20;44.10;;;;;;5085509;28;20128;-57
2021/08/10 03:25:06;;;;;;;11.45;2.97;;;36.20;44.00;;;;;;5080534;28;20077;-56
2021/08/10 03:27:34;;;;;;;18.55;3.30;;;36.10;43.70;;;;;;5082359;28;20160;-56
2021/08/10 03:30:04;;;;;;;13.60;3.08;;;36.10;43.70;;;;;;5080308;28;20096;-57
2021/08/10 03:32:34;;;;;;;12.45;2.50;;;36.10;43.50;;;;;;5083566;28;20090;-58
2021/08/10 03:35:02;;;;;;;14.68;3.30;;;36.10;43.40;;;;;;5084356;28;20081;-58
2021/08/10 03:37:31;;;;;;;18.15;3.20;;;36.10;43.40;;;;;;5078442;28;20077;-57
2021/08/10 03:40:00;;;;;;;10.75;3.58;;;36.10;43.50;;;;;;5080155;28;20130;-58
2021/08/10 03:42:28;;;;;;;22.55;3.75;;;36.10;43.50;;;;;;5082475;28;20027;-58
2021/08/10 03:44:56;;;;;;;18.45;3.85;;;36.10;43.40;;;;;;5079810;28;20150;-59
2021/08/10 03:47:22;;;;;;;10.93;3.15;;;36.00;43.30;;;;;;5081490;28;20081;-59
2021/08/10 03:49:51;;;;;;;25.95;3.97;;;36.00;43.50;;;;;;5078297;28;20135;-58
2021/08/10 03:52:18;;;;;;;13.65;3.30;;;36.10;43.00;;;;;;5081880;28;20072;-57
2021/08/10 03:54:45;;;;;;;18.63;5.70;;;36.10;43.00;;;;;;5082940;28;20415;-58
2021/08/10 03:57:15;;;;;;;19.27;4.25;;;36.10;43.30;;;;;;5082719;28;20081;-57
2021/08/10 03:59:45;;;;;;;17.90;4.07;;;36.10;44.10;;;;;;5078690;28;20069;-58
2021/08/10 04:02:14;;;;;;;18.13;4.30;;;36.00;43.50;;;;;;5083142;28;20128;-55
2021/08/10 04:04:42;;;;;;;18.83;4.28;;;36.00;44.00;;;;;;5080947;28;20115;-59
2021/08/10 04:07:10;;;;;;;21.90;3.95;;;36.00;44.30;;;;;;5081631;28;20064;-56
2021/08/10 04:09:39;;;;;;;19.38;3.97;;;35.90;44.70;;;;;;5080604;28;20164;-54
2021/08/10 04:12:08;;;;;;;27.30;4.45;;;35.90;44.70;;;;;;5080224;28;20080;-58
2021/08/10 04:14:35;;;;;;;15.98;2.97;;;35.80;44.50;;;;;;5082307;28;20530;-58
2021/08/10 04:17:05;;;;;;;20.15;3.13;;;35.80;44.70;;;;;;5081635;28;20102;-57
2021/08/10 04:19:35;;;;;;;13.63;3.03;;;35.80;44.50;;;;;;5084552;28;20130;-58
2021/08/10 04:22:03;;;;;;;18.80;3.03;;;35.80;44.40;;;;;;5079785;28;20100;-58
2021/08/10 04:24:29;;;;;;;14.73;3.53;;;35.80;44.30;;;;;;5079162;28;20073;-58
2021/08/10 04:26:57;;;;;;;14.85;3.35;;;35.80;44.00;;;;;;5076178;28;20450;-59
2021/08/10 04:29:24;;;;;;;20.02;4.25;;;35.80;43.90;;;;;;5073033;28;20101;-57
2021/08/10 04:31:51;;;;;;;24.73;5.10;;;35.80;44.10;;;;;;5079198;28;20081;-55
2021/08/10 04:34:17;;;;;;;22.33;6.22;;;35.70;44.10;;;;;;5079765;28;20072;-59
2021/08/10 04:36:44;;;;;;;28.42;9.70;;;35.70;44.30;;;;;;5078878;28;20471;-57
2021/08/10 04:39:10;;;;;;;27.88;8.38;;;35.70;44.50;;;;;;5082724;28;20077;-57
2021/08/10 04:41:37;;;;;;;23.02;7.60;;;35.70;44.50;;;;;;5081087;28;20095;-53
2021/08/10 04:44:03;;;;;;;32.20;7.68;;;35.60;44.40;;;;;;5084611;28;20081;-54
2021/08/10 04:46:30;;;;;;;26.88;7.55;;;35.60;44.20;;;;;;5084279;28;20175;-58
2021/08/10 04:48:57;;;;;;;26.15;7.78;;;35.60;44.40;;;;;;5077755;28;20526;-57
2021/08/10 04:51:25;;;;;;;27.42;6.45;;;35.50;44.30;;;;;;5079979;28;20125;-58
2021/08/10 04:53:51;;;;;;;24.27;6.32;;;35.50;44.40;;;;;;5077953;28;20073;-57
2021/08/10 04:56:18;;;;;;;19.80;5.13;;;35.50;44.40;;;;;;5081482;28;20703;-56
2021/08/10 04:58:44;;;;;;;28.58;5.60;;;35.50;44.30;;;;;;5079344;28;20164;-59
2021/08/10 05:01:11;;;;;;;26.70;5.80;;;35.50;44.00;;;;;;5082302;28;20088;-58
2021/08/10 05:03:37;;;;;;;14.20;4.90;;;35.50;43.70;;;;;;5083954;28;20419;-56
2021/08/10 05:06:05;;;;;;;19.92;4.68;;;35.50;43.40;;;;;;5082900;28;20168;-56
2021/08/10 05:08:31;;;;;;;25.63;5.43;;;35.50;43.50;;;;;;5077479;28;20073;-54
2021/08/10 05:11:01;;;;;;;13.60;5.18;;;35.60;43.50;;;;;;5078349;28;20096;-56
2021/08/10 05:13:28;;;;;;;29.27;5.97;;;35.50;43.50;;;;;;5089081;28;20368;-56
2021/08/10 05:15:54;;;;;;;23.08;5.45;;;35.50;43.60;;;;;;5086388;28;20100;-58
2021/08/10 05:18:21;;;;;;;28.98;6.60;;;35.50;43.70;;;;;;5083204;28;20081;-56
2021/08/10 05:20:48;;;;;;;19.88;6.05;;;35.50;44.00;;;;;;5082036;28;20089;-58
2021/08/10 05:23:17;;;;;;;22.55;6.40;;;35.50;44.10;;;;;;5081554;28;20108;-60
2021/08/10 05:25:44;;;;;;;30.75;7.57;;;35.50;44.40;;;;;;5082651;28;20134;-57
2021/08/10 05:28:10;;;;;;;25.05;7.32;;;35.40;44.70;;;;;;5087228;28;20099;-55
2021/08/10 05:30:37;;;;;;;27.60;7.85;;;35.30;45.50;;;;;;5085946;28;20154;-56
2021/08/10 05:33:04;;;;;;;38.67;7.35;;;35.30;45.40;;;;;;5083832;28;20156;-55
2021/08/10 05:35:31;;;;;;;29.98;7.53;;;35.40;46.10;;;;;;5086573;28;20129;-57
2021/08/10 05:37:57;;;;;;;29.27;7.47;;;35.30;46.90;;;;;;5087098;28;20644;-58
2021/08/10 05:40:24;;;;;;;35.13;8.15;;;35.30;46.40;;;;;;5083419;28;20163;-55
2021/08/10 05:42:50;;;;;;;37.50;8.55;;;35.20;46.30;;;;;;5081842;28;20403;-58
2021/08/10 05:45:17;;;;;;;27.45;7.85;;;35.10;46.00;;;;;;5081305;28;20554;-58
2021/08/10 05:47:44;;;;;;;28.55;6.85;;;35.00;46.10;;;;;;5088263;28;20084;-57
2021/08/10 05:50:13;;;;;;;27.27;7.75;;;35.00;46.70;;;;;;5085984;28;20120;-57
2021/08/10 05:52:40;;;;;;;23.02;6.75;;;34.90;46.30;;;;;;5086464;28;20630;-57
2021/08/10 05:55:07;;;;;;;17.85;5.22;;;34.90;46.30;;;;;;5084637;28;20077;-58
2021/08/10 05:57:33;;;;;;;11.30;3.60;;;34.90;65.30;;;;;;5087531;28;20055;-56
2021/08/10 06:00:00;;;;;;;16.70;3.53;;;34.80;48.00;;;;;;5083524;28;20069;-58
2021/08/10 06:02:27;;;;;;;9.00;3.22;;;34.70;48.40;;;;;;5086281;28;20441;-59
2021/08/10 06:04:53;;;;;;;9.73;3.50;;;34.70;48.90;;;;;;5083468;28;20175;-59
2021/08/10 06:07:20;;;;;;;8.95;3.10;;;34.60;49.10;;;;;;5082938;28;20069;-53
2021/08/10 06:09:47;;;;;;;11.88;3.75;;;34.60;49.20;;;;;;5084597;28;20101;-58
2021/08/10 06:12:13;;;;;;;13.45;4.70;;;34.50;49.40;;;;;;5084223;28;20181;-57
2021/08/10 06:14:40;;;;;;;13.00;4.57;;;34.40;49.50;;;;;;5085658;28;20405;-59
2021/08/10 06:17:06;;;;;;;11.80;4.45;;;34.40;49.60;;;;;;5083943;28;20077;-57
2021/08/10 06:19:33;;;;;;;14.02;5.00;;;34.30;49.70;;;;;;5084185;28;20079;-57
2021/08/10 06:21:59;;;;;;;17.65;5.60;;;34.20;49.70;;;;;;5085223;28;20529;-59
2021/08/10 06:24:31;;;;;;;14.10;7.18;;;34.10;49.80;;;;;;5082671;28;20101;-56
2021/08/10 06:26:57;;;;;;;13.80;5.32;;;34.00;49.80;;;;;;5084827;28;20592;-59
2021/08/10 06:29:24;;;;;;;15.05;4.13;;;34.00;49.80;;;;;;5084966;28;21640;-57
2021/08/10 06:31:54;;;;;;;12.90;3.80;;;34.00;49.80;;;;;;5087424;28;20580;-57
2021/08/10 06:34:21;;;;;;;12.20;3.25;;;34.00;50.00;;;;;;5070987;28;20088;-55
2021/08/10 06:36:47;;;;;;;8.60;3.10;;;33.80;50.20;;;;;;5085929;28;20083;-53
2021/08/10 06:39:14;;;;;;;11.30;3.03;;;33.70;50.50;;;;;;5085998;28;20087;-56
2021/08/10 06:41:40;;;;;;;14.93;3.35;;;33.70;50.70;;;;;;5086128;28;20553;-55
2021/08/10 06:44:07;;;;;;;8.45;3.08;;;33.70;50.70;;;;;;5083745;28;20482;-59
2021/08/10 06:46:33;;;;;;;13.90;2.97;;;33.70;50.80;;;;;;5088152;28;20080;-57
2021/08/10 06:49:00;;;;;;;10.50;3.58;;;33.70;51.10;;;;;;5084398;28;20073;-55
2021/08/10 06:51:26;;;;;;;14.32;3.38;;;33.60;51.30;;;;;;5086449;28;20235;-56
2021/08/10 06:53:53;;;;;;;9.82;3.53;;;33.60;51.40;;;;;;5083167;28;20077;-56
2021/08/10 06:56:19;;;;;;;8.68;3.15;;;33.50;51.40;;;;;;5086080;28;20077;-54
2021/08/10 06:58:46;;;;;;;12.23;3.38;;;33.50;51.40;;;;;;5083963;28;20068;-58
2021/08/10 07:01:12;;;;;;;9.32;2.70;;;33.60;51.40;;;;;;5085499;28;20163;-58
2021/08/10 07:03:39;;;;;;;13.00;2.20;;;33.50;51.60;;;;;;5084879;28;20445;-56
2021/08/10 07:06:05;;;;;;;6.68;2.70;;;33.50;51.80;;;;;;5086803;28;20076;-58
2021/08/10 07:08:32;;;;;;;9.30;2.90;;;33.50;51.90;;;;;;5086679;28;20081;-57
2021/08/10 07:10:58;;;;;;;8.07;2.83;;;33.50;51.70;;;;;;5086324;28;20157;-57
2021/08/10 07:13:25;;;;;;;15.15;3.20;;;33.50;51.50;;;;;;5084512;28;20542;-57
2021/08/10 07:15:52;;;;;;;9.38;2.90;;;33.60;51.20;;;;;;5082104;28;20085;-55
2021/08/10 07:18:18;;;;;;;16.70;3.55;;;33.60;51.20;;;;;;5083546;28;20475;-60
2021/08/10 07:20:45;;;;;;;7.47;3.10;;;33.60;51.00;;;;;;5083644;28;20073;-57
2021/08/10 07:23:11;;;;;;;12.05;3.45;;;33.60;51.20;;;;;;5081112;28;20083;-54
2021/08/10 07:25:38;;;;;;;14.73;3.85;;;33.50;51.40;;;;;;5081315;28;20105;-56
2021/08/10 07:28:04;;;;;;;13.65;4.75;;;33.50;51.90;;;;;;5083114;28;20077;-55
2021/08/10 07:30:31;;;;;;;14.38;5.88;;;33.50;52.50;;;;;;5085704;28;20093;-54
2021/08/10 07:32:57;;;;;;;16.77;6.22;;;33.40;53.50;;;;;;5083346;28;20093;-58
2021/08/10 07:35:24;;;;;;;27.83;8.50;;;33.30;54.10;;;;;;5080395;28;20164;-57
2021/08/10 07:37:51;;;;;;;23.80;9.55;;;33.10;54.90;;;;;;5083671;28;20126;-56
2021/08/10 07:40:17;;;;;;;29.00;8.18;;;33.00;56.10;;;;;;5080836;28;20083;-56
2021/08/10 07:42:44;;;;;;;16.05;5.05;;;33.10;56.90;;;;;;5083983;28;20084;-56
2021/08/10 07:45:11;;;;;;;26.90;6.07;;;33.10;58.10;;;;;;5080946;28;20084;-55
2021/08/10 07:47:37;;;;;;;13.70;5.68;;;33.10;58.80;;;;;;5082239;28;20484;-57
2021/08/10 07:50:04;;;;;;;19.25;6.05;;;33.00;60.70;;;;;;5082520;28;20123;-57
2021/08/10 07:52:31;;;;;;;16.02;5.57;;;32.90;61.70;;;;;;5083643;28;20080;-57
2021/08/10 07:54:57;;;;;;;27.08;5.88;;;32.80;62.90;;;;;;5086599;28;20083;-57
2021/08/10 07:57:24;;;;;;;21.73;6.13;;;32.80;64.40;;;;;;5083127;28;20072;-59
2021/08/10 07:59:50;;;;;;;17.25;5.38;;;32.70;65.90;;;;;;5084229;28;20122;-54
2021/08/10 08:02:17;;;;;;;16.63;5.85;;;32.60;67.10;;;;;;5084860;28;20096;-55
2021/08/10 08:04:43;;;;;;;20.90;6.13;;;32.60;68.40;;;;;;5085036;28;20108;-54
2021/08/10 08:07:10;;;;;;;17.20;5.53;;;32.50;69.50;;;;;;5083590;28;20526;-57
2021/08/10 08:09:36;;;;;;;14.52;4.97;;;32.60;70.50;;;;;;5081122;28;20584;-58
2021/08/10 08:12:03;;;;;;;14.88;4.95;;;32.50;71.30;;;;;;5084333;28;20172;-56
2021/08/10 08:14:29;;;;;;;17.10;5.22;;;32.50;71.90;;;;;;5082104;28;20153;-54
2021/08/10 08:16:56;;;;;;;21.08;4.90;;;32.40;72.00;;;;;;5077821;28;20152;-57
2021/08/10 08:19:22;;;;;;;15.45;4.90;;;32.30;72.80;;;;;;5082761;28;20077;-55
2021/08/10 08:21:49;;;;;;;13.38;4.55;;;32.40;73.00;;;;;;5085252;28;20080;-57
2021/08/10 08:24:15;;;;;;;14.32;4.97;;;32.20;73.40;;;;;;5081366;28;20148;-58
2021/08/10 08:26:42;;;;;;;10.88;5.13;;;32.30;74.00;;;;;;5084055;28;20103;-57
2021/08/10 08:29:08;;;;;;;13.48;4.25;;;32.20;74.30;;;;;;5083732;28;20397;-56
2021/08/10 08:31:35;;;;;;;9.32;3.00;;;32.20;75.30;;;;;;5083938;28;20100;-55
2021/08/10 08:34:02;;;;;;;6.68;2.80;;;32.10;76.10;;;;;;5083654;28;20153;-57
2021/08/10 08:36:28;;;;;;;6.75;3.10;;;32.10;77.20;;;;;;5080453;28;20084;-54
2021/08/10 08:38:55;;;;;;;12.35;3.80;;;32.00;78.40;;;;;;5082590;28;20198;-55
2021/08/10 08:41:21;;;;;;;9.95;4.28;;;32.00;78.70;;;;;;5079814;28;20453;-56
2021/08/10 08:43:48;;;;;;;12.52;4.10;;;32.00;79.40;;;;;;5081103;28;20155;-58
2021/08/10 08:46:16;;;;;;;10.43;5.18;;;32.00;79.60;;;;;;5081932;28;20076;-58
2021/08/10 08:48:44;;;;;;;17.67;6.28;;;32.00;80.20;;;;;;5077728;28;20084;-55
2021/08/10 08:51:11;;;;;;;18.45;5.72;;;32.00;80.10;;;;;;5080344;28;20116;-56
2021/08/10 08:53:54;;;;;;;15.18;5.75;;;32.00;80.40;;;;;;5081365;28;20096;-56
2021/08/10 08:56:24;;;;;;;18.92;6.93;;;32.00;80.50;;;;;;5083532;28;20076;-56
2021/08/10 08:58:55;;;;;;;18.63;6.95;;;32.00;80.60;;;;;;5084115;28;20084;-57
2021/08/10 09:01:22;;;;;;;11.07;5.35;;;32.00;81.20;;;;;;5083572;28;20092;-55
2021/08/10 09:03:48;;;;;;;12.32;5.75;;;32.00;81.30;;;;;;5082043;28;20105;-56
2021/08/10 09:06:15;;;;;;;14.10;6.00;;;32.20;81.10;;;;;;5081060;28;20077;-53
2021/08/10 09:08:42;;;;;;;11.23;4.95;;;32.20;81.40;;;;;;5081473;28;20076;-56
2021/08/10 09:11:18;;;;;;;10.10;4.28;;;32.30;81.70;;;;;;5085507;28;20126;-58
2021/08/10 09:14:01;;;;;;;15.88;5.22;;;32.20;82.20;;;;;;5082955;28;20072;-56
2021/08/10 09:16:28;;;;;;;13.88;5.38;;;32.40;81.80;;;;;;5080690;28;20083;-56
2021/08/10 09:18:55;;;;;;;19.08;5.97;;;32.40;81.50;;;;;;5084017;28;20111;-54
2021/08/10 09:21:26;;;;;;;13.68;5.85;;;32.40;81.40;;;;;;5080779;28;20100;-58
2021/08/10 09:23:58;;;;;;;15.93;6.18;;;32.40;81.50;;;;;;5079412;28;20081;-54
2021/08/10 09:26:31;;;;;;;16.33;6.57;;;32.40;81.40;;;;;;5083980;28;20093;-54
2021/08/10 09:29:00;;;;;;;15.73;6.70;;;32.40;81.50;;;;;;5079366;28;20579;-57
2021/08/10 09:31:48;;;;;;;18.02;5.85;;;32.20;82.30;;;;;;5082601;28;20108;-57
2021/08/10 09:34:26;;;;;;;14.05;6.13;;;32.20;82.20;;;;;;5080891;28;20084;-57
2021/08/10 09:36:53;;;;;;;17.42;5.70;;;32.40;81.80;;;;;;5079884;28;20126;-58
2021/08/10 09:39:30;;;;;;;10.52;5.05;;;32.30;82.60;;;;;;5082512;28;20069;-57
2021/08/10 09:42:03;;;;;;;14.00;5.65;;;32.30;82.10;;;;;;5080851;28;20530;-56
2021/08/10 09:44:30;;;;;;;14.35;4.88;;;32.30;82.20;;;;;;5079740;28;20418;-56
2021/08/10 09:46:57;;;;;;;14.43;4.22;;;32.20;82.50;;;;;;5079907;28;20204;-55
2021/08/10 09:49:23;;;;;;;12.98;4.95;;;32.00;83.00;;;;;;5079012;28;20163;-55
2021/08/10 09:51:51;;;;;;;13.57;5.05;;;32.00;83.20;;;;;;5082702;28;20138;-58
2021/08/10 09:54:21;;;;;;;18.33;6.90;;;32.00;83.10;;;;;;5083965;28;20076;-58
2021/08/10 09:56:51;;;;;;;19.38;7.38;;;31.90;82.30;;;;;;5083166;28;20087;-54
2021/08/10 09:59:20;;;;;;;17.08;7.28;;;31.90;82.20;;;;;;5085301;28;20099;-56
2021/08/10 10:01:50;;;;;;;16.10;6.85;;;31.90;81.50;;;;;;5086693;28;20104;-53
2021/08/10 10:04:20;;;;;;;22.98;7.38;;;31.90;81.50;;;;;;5084507;28;20494;-56
2021/08/10 10:06:49;;;;;;;15.02;6.07;;;31.90;82.20;;;;;;5083373;28;20073;-57
2021/08/10 10:09:16;;;;;;;10.43;3.75;;;32.00;82.00;;;;;;5088218;28;20076;-57
2021/08/10 10:11:45;;;;;;;10.15;3.63;;;31.70;84.00;;;;;;5086122;28;20116;-56
2021/08/10 10:14:12;;;;;;;10.88;2.97;;;31.80;84.20;;;;;;5084915;28;20076;-54
2021/08/10 10:16:42;;;;;;;9.20;3.05;;;31.80;85.00;;;;;;5083938;28;20080;-55
2021/08/10 10:19:11;;;;;;;8.50;2.67;;;31.80;85.20;;;;;;5084730;28;20127;-58
2021/08/10 10:21:45;;;;;;;9.27;3.08;;;31.90;85.60;;;;;;5082580;28;20078;-55
2021/08/10 10:24:12;;;;;;;7.75;2.58;;;31.80;87.60;;;;;;5085900;28;20073;-54
2021/08/10 10:26:42;;;;;;;10.07;3.08;;;31.80;88.70;;;;;;5086738;28;20159;-54
2021/08/10 10:29:11;;;;;;;11.52;3.47;;;31.70;89.20;;;;;;5083048;28;20092;-58
2021/08/10 10:31:38;;;;;;;12.98;3.85;;;31.80;90.10;;;;;;5086526;28;20111;-55
2021/08/10 10:34:05;;;;;;;10.88;3.67;;;31.70;90.80;;;;;;5087438;28;20187;-60
2021/08/10 10:36:34;;;;;;;9.80;3.58;;;31.70;90.80;;;;;;5084232;28;20139;-57
2021/08/10 10:39:00;;;;;;;12.65;3.78;;;31.70;91.20;;;;;;5083577;28;20500;-61
2021/08/10 10:41:35;;;;;;;8.35;3.05;;;31.70;91.30;;;;;;5086570;28;20081;-59
2021/08/10 10:44:02;;;;;;;13.50;4.13;;;31.70;91.40;;;;;;5082093;28;20076;-55
2021/08/10 10:46:33;;;;;;;10.60;3.92;;;31.70;91.60;;;;;;5083269;28;20121;-57
2021/08/10 10:49:02;;;;;;;15.65;4.60;;;31.70;91.80;;;;;;5085981;28;20081;-58
2021/08/10 10:51:37;;;;;;;11.63;4.13;;;31.80;92.10;;;;;;5079689;28;20113;-57
2021/08/10 10:54:28;;;;;;;13.35;4.00;;;31.70;92.30;;;;;;5083128;28;20496;-54
2021/08/10 10:56:56;;;;;;;13.15;4.00;;;31.80;92.80;;;;;;5084791;28;20164;-56
2021/08/10 10:59:49;;;;;;;9.02;3.47;;;31.70;93.10;;;;;;5083857;28;20073;-57
2021/08/10 11:02:22;;;;;;;10.88;4.10;;;31.70;93.50;;;;;;5085908;28;20131;-58
2021/08/10 11:05:07;;;;;;;16.30;4.32;;;31.50;94.30;;;;;;5088607;28;20164;-55
2021/08/10 11:07:56;;;;;;;12.80;4.38;;;31.60;94.50;;;;;;5084613;28;20084;-60
2021/08/10 11:10:45;;;;;;;12.18;3.55;;;31.60;94.90;;;;;;5081994;28;20107;-55
2021/08/10 11:13:21;;;;;;;17.52;4.38;;;31.70;94.70;;;;;;5084617;28;20688;-56
2021/08/10 11:15:47;;;;;;;10.43;4.40;;;31.60;94.90;;;;;;5083747;28;20068;-56
2021/08/10 11:18:13;;;;;;;17.42;4.78;;;31.70;94.90;;;;;;5086865;28;20320;-56
2021/08/10 11:20:58;;;;;;;13.15;4.25;;;31.70;94.60;;;;;;5084774;28;20163;-57
2021/08/10 11:23:25;;;;;;;13.38;3.95;;;31.60;95.30;;;;;;5084001;28;20529;-59
2021/08/10 11:26:09;;;;;;;13.13;3.80;;;31.70;95.30;;;;;;5085458;28;20090;-55
2021/08/10 11:28:38;;;;;;;8.95;3.42;;;31.70;95.30;;;;;;5083965;28;20069;-57
2021/08/10 11:31:09;;;;;;;14.00;3.28;;;31.60;95.70;;;;;;5084060;28;20133;-54
2021/08/10 11:33:40;;;;;;;11.45;3.03;;;31.50;95.60;;;;;;5083249;28;20503;-55
2021/08/10 11:36:10;;;;;;;13.82;3.50;;;31.50;95.90;;;;;;5078816;28;20095;-59
2021/08/10 11:38:51;;;;;;;12.13;3.47;;;31.60;95.80;;;;;;5083521;28;20434;-56
2021/08/10 11:41:38;;;;;;;11.23;3.03;;;31.40;95.40;;;;;;5081642;28;20153;-54
2021/08/10 11:44:18;;;;;;;10.93;3.60;;;31.40;95.40;;;;;;5083663;28;20104;-57
2021/08/10 11:46:45;;;;;;;16.35;3.13;;;31.40;95.30;;;;;;5086018;28;20077;-56
2021/08/10 11:49:18;;;;;;;11.68;3.38;;;31.40;94.90;;;;;;5082906;28;20100;-57
2021/08/10 11:51:45;;;;;;;8.02;2.88;;;31.40;94.80;;;;;;5085171;28;20124;-53
2021/08/10 11:54:19;;;;;;;7.90;2.70;;;31.30;95.00;;;;;;5086880;28;20073;-53
2021/08/10 11:56:54;;;;;;;12.45;3.13;;;31.40;95.40;;;;;;5083035;28;20112;-56
2021/08/10 11:59:25;;;;;;;10.68;2.85;;;31.40;95.40;;;;;;5083003;28;20071;-56
2021/08/10 12:01:58;;;;;;;12.55;2.65;;;31.30;95.90;;;;;;5089270;28;20083;-58
2021/08/10 12:04:27;;;;;;;10.48;3.15;;;31.10;96.50;;;;;;5083537;28;20073;-57
2021/08/10 12:06:59;;;;;;;10.70;3.03;;;31.30;96.40;;;;;;5081272;28;20553;-56
2021/08/10 12:09:37;;;;;;;13.70;3.67;;;31.30;96.60;;;;;;5082278;28;20521;-57
2021/08/10 12:12:06;;;;;;;13.73;3.35;;;31.20;96.30;;;;;;5079109;28;20126;-57
2021/08/10 12:14:34;;;;;;;14.27;2.97;;;31.10;96.10;;;;;;5079545;28;20156;-58
2021/08/10 12:17:04;;;;;;;13.70;3.22;;;31.20;95.70;;;;;;5081536;28;20073;-55
2021/08/10 12:19:48;;;;;;;11.48;3.10;;;31.10;95.60;;;;;;5080796;28;20068;-57
2021/08/10 12:22:18;;;;;;;13.80;3.03;;;31.20;95.40;;;;;;5079651;28;20101;-58
2021/08/10 12:24:46;;;;;;;10.00;2.72;;;31.20;95.50;;;;;;5082186;28;20526;-55
2021/08/10 12:27:14;;;;;;;9.55;2.88;;;31.20;94.90;;;;;;5079512;28;20441;-55
2021/08/10 12:29:45;;;;;;;14.98;3.05;;;31.20;94.40;;;;;;5083978;28;20111;-58
2021/08/10 12:32:21;;;;;;;11.48;2.83;;;31.30;93.80;;;;;;5080090;28;20168;-53
2021/08/10 12:34:48;;;;;;;7.32;2.33;;;31.30;93.30;;;;;;5082525;28;20072;-55
2021/08/10 12:37:14;;;;;;;7.47;2.67;;;31.30;93.10;;;;;;5081731;28;20123;-57
2021/08/10 12:39:43;;;;;;;12.65;3.17;;;31.20;93.00;;;;;;5078391;28;20069;-56
2021/08/10 12:42:10;;;;;;;13.02;3.38;;;31.10;93.40;;;;;;5077577;28;20107;-56
2021/08/10 12:44:39;;;;;;;11.32;2.97;;;31.00;93.60;;;;;;5080531;28;20087;-55
2021/08/10 12:47:09;;;;;;;12.63;3.55;;;31.10;93.70;;;;;;5084292;28;20084;-56
2021/08/10 12:49:43;;;;;;;14.90;3.53;;;31.10;93.60;;;;;;5080146;28;20164;-58